Time;durP1;ratioP1;P1;durP2;ratioP2;P2;SDS_P1;SDS_P2;PMS_P1;PMS_P2;Temp;Humidity;BMP_temperature;BMP_pressure;BME280_temperature;BME280_humidity;BME280_pressure;Samples;Min_cycle;Max_cycle;Signal;HPM_P1;HPM_P2
2023/01/08 00:01:31;;;;;;;1.73;1.20;;;;;;;;;;5026364;28;20037;-75
2023/01/08 00:03:57;;;;;;;1.52;1.02;;;;;;;;;;5027706;28;20033;-76
2023/01/08 00:06:24;;;;;;;2.20;1.38;;;;;;;;;;5030202;28;20044;-75
2023/01/08 00:08:50;;;;;;;1.95;0.90;;;;;;;;;;5031831;28;20026;-75
2023/01/08 00:11:16;;;;;;;2.30;1.40;;;;;;;;;;5029913;28;20075;-76
2023/01/08 00:13:43;;;;;;;1.50;1.25;;;;;;;;;;5030956;28;20043;-75
2023/01/08 00:16:10;;;;;;;1.52;1.35;;;;;;;;;;5030015;28;20025;-76
2023/01/08 00:18:36;;;;;;;2.03;1.38;;;;;;;;;;5031024;28;20029;-75
2023/01/08 00:21:02;;;;;;;2.08;1.10;;;;;;;;;;5031366;28;20026;-75
2023/01/08 00:23:28;;;;;;;1.98;1.30;;;;;;;;;;5030812;28;20038;-75
2023/01/08 00:25:54;;;;;;;1.95;1.33;;;;;;;;;;5039720;28;20029;-75
2023/01/08 00:28:20;;;;;;;1.40;1.30;;;;;;;;;;5037157;28;20510;-75
2023/01/08 00:30:46;;;;;;;2.78;1.40;;;;;;;;;;5035996;28;20366;-75
2023/01/08 00:33:12;;;;;;;3.60;1.40;;;;;;;;;;5032270;28;20033;-75
2023/01/08 00:35:39;;;;;;;1.73;1.35;;;;;;;;;;5033893;28;20835;-75
2023/01/08 00:38:05;;;;;;;1.67;1.30;;;;;;;;;;5026503;28;20025;-75
2023/01/08 00:40:32;;;;;;;1.70;1.38;;;;;;;;;;5030841;28;20029;-75
2023/01/08 00:42:58;;;;;;;1.63;1.30;;;;;;;;;;5024688;28;20026;-75
2023/01/08 00:45:24;;;;;;;2.25;1.38;;;;;;;;;;5026664;28;22093;-75
2023/01/08 00:47:50;;;;;;;1.60;1.30;;;;;;;;;;5033625;28;20052;-74
2023/01/08 00:50:16;;;;;;;1.50;1.23;;;;;;;;;;5035137;28;20034;-75
2023/01/08 00:52:42;;;;;;;1.40;1.00;;;;;;;;;;5038122;28;20057;-75
2023/01/08 00:55:08;;;;;;;1.60;1.20;;;;;;;;;;5037115;28;20025;-75
2023/01/08 00:57:34;;;;;;;1.40;1.20;;;;;;;;;;5025512;28;20045;-75
2023/01/08 01:00:00;;;;;;;2.45;1.23;;;;;;;;;;5031163;28;20025;-75
2023/01/08 01:02:27;;;;;;;3.08;1.25;;;;;;;;;;5039439;28;20033;-76
2023/01/08 01:04:53;;;;;;;1.15;0.95;;;;;;;;;;5028285;28;20088;-75
2023/01/08 01:07:19;;;;;;;2.35;1.30;;;;;;;;;;5034965;28;20036;-75
2023/01/08 01:09:45;;;;;;;1.38;1.17;;;;;;;;;;5030697;28;20041;-76
2023/01/08 01:12:11;;;;;;;1.95;1.20;;;;;;;;;;5029789;28;20033;-76
2023/01/08 01:14:37;;;;;;;1.42;1.10;;;;;;;;;;5029117;28;20485;-74
2023/01/08 01:17:04;;;;;;;2.13;1.20;;;;;;;;;;5026069;28;20029;-75
2023/01/08 01:19:30;;;;;;;1.35;1.10;;;;;;;;;;5027698;28;20034;-75
2023/01/08 01:21:56;;;;;;;2.92;1.35;;;;;;;;;;5027431;28;20033;-75
2023/01/08 01:24:23;;;;;;;2.17;1.40;;;;;;;;;;5029908;28;20048;-74
2023/01/08 01:26:50;;;;;;;2.30;1.30;;;;;;;;;;5029483;28;20054;-75
2023/01/08 01:29:16;;;;;;;1.27;1.15;;;;;;;;;;5027102;28;20091;-76
2023/01/08 01:31:42;;;;;;;1.80;1.20;;;;;;;;;;5032396;28;20033;-75
2023/01/08 01:34:08;;;;;;;1.83;1.20;;;;;;;;;;5030219;28;20120;-75
2023/01/08 01:36:35;;;;;;;1.35;1.08;;;;;;;;;;5029517;28;20099;-75
2023/01/08 01:39:01;;;;;;;2.05;1.33;;;;;;;;;;5029443;28;20025;-75
2023/01/08 01:41:32;;;;;;;1.63;1.30;;;;;;;;;;5022958;28;20018;-75
2023/01/08 01:43:59;;;;;;;0.95;0.93;;;;;;;;;;5027804;28;20044;-74
2023/01/08 01:46:30;;;;;;;2.15;1.30;;;;;;;;;;5034433;28;20045;-74
2023/01/08 01:48:57;;;;;;;1.85;1.30;;;;;;;;;;5030533;28;20031;-75
2023/01/08 01:51:25;;;;;;;1.75;1.25;;;;;;;;;;5035487;28;20070;-75
2023/01/08 01:53:51;;;;;;;1.40;1.05;;;;;;;;;;5037343;28;20729;-75
2023/01/08 01:56:17;;;;;;;5.40;1.42;;;;;;;;;;5032096;28;20033;-74
2023/01/08 01:58:43;;;;;;;1.25;1.10;;;;;;;;;;5028730;28;20022;-75
2023/01/08 02:01:09;;;;;;;2.90;1.13;;;;;;;;;;5027573;28;20503;-75
2023/01/08 02:03:36;;;;;;;1.90;1.30;;;;;;;;;;5026637;28;20029;-75
2023/01/08 02:06:07;;;;;;;2.13;1.30;;;;;;;;;;5029263;28;20017;-74
2023/01/08 02:08:39;;;;;;;1.80;1.13;;;;;;;;;;5033298;28;20037;-75
2023/01/08 02:11:31;;;;;;;2.10;1.40;;;;;;;;;;5029467;28;20029;-75
2023/01/08 02:14:03;;;;;;;1.83;1.20;;;;;;;;;;5027105;28;20049;-75
2023/01/08 02:16:35;;;;;;;1.65;1.50;;;;;;;;;;5029946;28;20052;-75
2023/01/08 02:19:04;;;;;;;2.13;1.33;;;;;;;;;;5029968;28;20022;-75
2023/01/08 02:21:40;;;;;;;1.90;1.23;;;;;;;;;;5033193;28;20061;-75
2023/01/08 02:24:12;;;;;;;1.58;1.20;;;;;;;;;;5030844;28;20033;-74
2023/01/08 02:26:38;;;;;;;2.65;1.25;;;;;;;;;;5029886;28;20053;-75
2023/01/08 02:29:06;;;;;;;1.23;1.00;;;;;;;;;;5027871;28;20507;-75
2023/01/08 02:31:32;;;;;;;1.65;1.20;;;;;;;;;;5027503;28;20053;-75
2023/01/08 02:33:58;;;;;;;1.35;1.05;;;;;;;;;;5026220;28;20076;-75
2023/01/08 02:36:33;;;;;;;2.10;1.25;;;;;;;;;;5027519;28;20041;-75
2023/01/08 02:39:08;;;;;;;2.17;1.13;;;;;;;;;;5031740;28;20026;-75
2023/01/08 02:42:01;;;;;;;2.25;1.30;;;;;;;;;;5031917;28;20018;-75
2023/01/08 02:44:35;;;;;;;1.95;1.33;;;;;;;;;;5018451;28;20045;-75
2023/01/08 02:47:04;;;;;;;2.58;1.27;;;;;;;;;;5031582;28;20041;-75
2023/01/08 02:49:32;;;;;;;1.63;1.27;;;;;;;;;;5027913;28;20037;-76
2023/01/08 02:52:00;;;;;;;1.98;1.38;;;;;;;;;;5028943;28;20478;-76
2023/01/08 02:54:29;;;;;;;1.73;1.23;;;;;;;;;;5036633;28;20380;-74
2023/01/08 02:56:59;;;;;;;1.15;1.00;;;;;;;;;;5028579;28;20027;-75
2023/01/08 02:59:26;;;;;;;1.55;1.45;;;;;;;;;;5026545;28;20026;-75
2023/01/08 03:01:53;;;;;;;2.28;1.33;;;;;;;;;;5030735;28;20037;-75
2023/01/08 03:04:20;;;;;;;1.42;1.10;;;;;;;;;;5028349;28;20844;-75
2023/01/08 03:06:47;;;;;;;1.88;1.05;;;;;;;;;;5028290;28;20044;-75
2023/01/08 03:09:14;;;;;;;1.58;1.00;;;;;;;;;;5032119;28;20053;-75
2023/01/08 03:11:51;;;;;;;1.52;1.13;;;;;;;;;;5029485;28;20107;-75
2023/01/08 03:14:24;;;;;;;1.73;1.02;;;;;;;;;;5029956;28;20087;-75
2023/01/08 03:17:03;;;;;;;1.73;1.30;;;;;;;;;;5028917;28;20033;-75
2023/01/08 03:19:32;;;;;;;1.60;1.15;;;;;;;;;;5028061;28;20028;-75
2023/01/08 03:22:00;;;;;;;2.05;1.27;;;;;;;;;;5015927;28;20037;-75
2023/01/08 03:24:28;;;;;;;2.80;1.33;;;;;;;;;;5027513;28;20030;-75
2023/01/08 03:26:59;;;;;;;1.65;1.27;;;;;;;;;;5033064;28;20091;-75
2023/01/08 03:29:25;;;;;;;1.58;1.38;;;;;;;;;;5032150;28;20030;-75
2023/01/08 03:31:57;;;;;;;1.58;1.20;;;;;;;;;;5037984;28;20037;-75
2023/01/08 03:34:24;;;;;;;1.52;1.30;;;;;;;;;;5026331;28;20456;-75
2023/01/08 03:36:52;;;;;;;1.50;1.02;;;;;;;;;;5027875;28;20029;-75
2023/01/08 03:39:20;;;;;;;1.45;1.23;;;;;;;;;;5027752;28;20060;-75
2023/01/08 03:41:47;;;;;;;1.90;1.15;;;;;;;;;;5031683;28;20048;-75
2023/01/08 03:44:13;;;;;;;1.52;1.13;;;;;;;;;;5028480;28;20500;-75
2023/01/08 03:46:41;;;;;;;1.65;1.27;;;;;;;;;;5034271;28;20120;-75
2023/01/08 03:49:08;;;;;;;3.53;1.50;;;;;;;;;;5032189;28;20176;-75
2023/01/08 03:51:41;;;;;;;1.73;1.27;;;;;;;;;;5031647;28;20098;-75
2023/01/08 03:54:08;;;;;;;2.50;1.48;;;;;;;;;;5028693;28;20042;-75
2023/01/08 03:56:34;;;;;;;1.35;1.08;;;;;;;;;;5030852;28;20302;-75
2023/01/08 03:59:00;;;;;;;1.33;1.05;;;;;;;;;;5030809;28;20018;-75
2023/01/08 04:01:26;;;;;;;7.30;1.90;;;;;;;;;;5031643;28;20473;-75
2023/01/08 04:03:52;;;;;;;1.92;1.45;;;;;;;;;;5028525;28;20374;-75
2023/01/08 04:06:18;;;;;;;2.58;1.40;;;;;;;;;;5033820;28;20021;-75
2023/01/08 04:08:46;;;;;;;2.05;1.40;;;;;;;;;;5032681;28;20388;-75
2023/01/08 04:11:12;;;;;;;1.27;1.00;;;;;;;;;;5028305;28;20163;-75
2023/01/08 04:13:38;;;;;;;1.80;1.40;;;;;;;;;;5029214;28;20041;-75
2023/01/08 04:16:04;;;;;;;1.50;0.90;;;;;;;;;;5031480;28;20027;-75
2023/01/08 04:18:30;;;;;;;1.63;1.40;;;;;;;;;;5029803;28;20022;-75
2023/01/08 04:20:56;;;;;;;2.08;1.50;;;;;;;;;;5037912;28;20499;-75
2023/01/08 04:23:22;;;;;;;2.42;1.73;;;;;;;;;;5031547;28;20026;-75
2023/01/08 04:25:48;;;;;;;1.30;1.20;;;;;;;;;;5029085;28;20033;-75
2023/01/08 04:28:14;;;;;;;2.20;1.55;;;;;;;;;;5028807;28;20056;-75
2023/01/08 04:30:40;;;;;;;1.23;1.10;;;;;;;;;;5035936;28;20064;-76
2023/01/08 04:33:06;;;;;;;2.10;1.50;;;;;;;;;;5031963;28;20029;-75
2023/01/08 04:35:32;;;;;;;2.65;1.50;;;;;;;;;;5037348;28;20041;-75
2023/01/08 04:37:58;;;;;;;2.58;1.48;;;;;;;;;;5028353;28;20060;-75
2023/01/08 04:40:24;;;;;;;1.90;1.25;;;;;;;;;;5028276;28;20459;-75
2023/01/08 04:42:50;;;;;;;1.58;1.20;;;;;;;;;;5034227;28;20029;-75
2023/01/08 04:45:19;;;;;;;2.65;1.40;;;;;;;;;;5031596;28;20029;-75
2023/01/08 04:47:45;;;;;;;1.60;1.38;;;;;;;;;;5033528;28;20036;-75
2023/01/08 04:50:11;;;;;;;2.53;1.40;;;;;;;;;;5042009;28;20037;-75
2023/01/08 04:52:37;;;;;;;2.20;1.40;;;;;;;;;;5045342;28;20502;-75
2023/01/08 04:55:03;;;;;;;1.67;1.27;;;;;;;;;;5026168;28;20423;-75
2023/01/08 04:57:29;;;;;;;1.55;1.15;;;;;;;;;;5031209;28;20018;-75
2023/01/08 04:59:55;;;;;;;1.40;1.30;;;;;;;;;;5031127;28;20488;-74
2023/01/08 05:02:21;;;;;;;1.40;1.30;;;;;;;;;;5029179;28;20499;-75
2023/01/08 05:04:47;;;;;;;1.33;1.20;;;;;;;;;;5033734;28;20029;-75
2023/01/08 05:07:13;;;;;;;1.75;1.10;;;;;;;;;;5037573;28;20094;-75
2023/01/08 05:09:39;;;;;;;1.48;1.30;;;;;;;;;;5021803;28;20041;-75
2023/01/08 05:12:05;;;;;;;3.47;1.40;;;;;;;;;;5030200;28;20029;-75
2023/01/08 05:14:31;;;;;;;1.27;1.10;;;;;;;;;;5035960;28;20037;-75
2023/01/08 05:16:57;;;;;;;1.52;1.42;;;;;;;;;;5031314;28;20037;-76
2023/01/08 05:19:22;;;;;;;1.35;1.25;;;;;;;;;;5032358;28;20148;-74
2023/01/08 05:21:48;;;;;;;1.48;1.20;;;;;;;;;;5029027;28;20029;-75
2023/01/08 05:24:14;;;;;;;3.15;1.40;;;;;;;;;;5031597;28;20022;-74
2023/01/08 05:26:40;;;;;;;1.40;1.20;;;;;;;;;;5040203;28;20155;-74
2023/01/08 05:29:06;;;;;;;3.05;1.40;;;;;;;;;;5029267;28;20033;-76
2023/01/08 05:31:32;;;;;;;3.08;1.20;;;;;;;;;;5028503;28;20060;-75
2023/01/08 05:33:59;;;;;;;4.20;1.40;;;;;;;;;;5029835;28;20025;-75
2023/01/08 05:36:25;;;;;;;2.80;1.60;;;;;;;;;;5028893;28;20044;-74
2023/01/08 05:38:51;;;;;;;3.28;1.40;;;;;;;;;;5030888;28;20025;-75
2023/01/08 05:41:17;;;;;;;1.92;1.42;;;;;;;;;;5028776;28;20025;-75
2023/01/08 05:43:43;;;;;;;2.67;1.23;;;;;;;;;;5035888;28;20017;-75
2023/01/08 05:46:09;;;;;;;1.75;1.38;;;;;;;;;;5040031;28;20025;-75
2023/01/08 05:48:36;;;;;;;2.38;1.67;;;;;;;;;;5029924;28;20080;-76
2023/01/08 05:51:02;;;;;;;2.25;1.40;;;;;;;;;;5026898;28;20032;-75
2023/01/08 05:53:30;;;;;;;1.80;1.33;;;;;;;;;;5034522;28;20032;-75
2023/01/08 05:56:00;;;;;;;3.78;1.45;;;;;;;;;;5022107;28;20099;-75
2023/01/08 05:58:26;;;;;;;1.30;1.15;;;;;;;;;;5029662;28;20033;-75
2023/01/08 06:00:52;;;;;;;4.18;1.40;;;;;;;;;;5028056;28;20036;-75
2023/01/08 06:03:22;;;;;;;1.83;1.20;;;;;;;;;;5027485;28;20071;-76
2023/01/08 06:05:48;;;;;;;2.03;1.50;;;;;;;;;;5026874;28;20142;-76
2023/01/08 06:08:14;;;;;;;3.05;1.40;;;;;;;;;;5033052;28;20047;-75
2023/01/08 06:10:40;;;;;;;1.48;1.20;;;;;;;;;;5030369;28;20032;-75
2023/01/08 06:13:07;;;;;;;1.23;1.13;;;;;;;;;;5028219;28;20021;-75
2023/01/08 06:15:33;;;;;;;2.20;1.45;;;;;;;;;;5028798;28;20041;-75
2023/01/08 06:18:02;;;;;;;2.88;1.30;;;;;;;;;;5032059;28;20033;-75
2023/01/08 06:20:28;;;;;;;1.77;1.40;;;;;;;;;;5029572;28;20036;-75
2023/01/08 06:22:54;;;;;;;1.55;1.08;;;;;;;;;;5032440;28;20026;-75
2023/01/08 06:25:20;;;;;;;1.88;1.48;;;;;;;;;;5028038;28;20119;-75
2023/01/08 06:27:50;;;;;;;1.58;1.27;;;;;;;;;;5027356;28;20036;-76
2023/01/08 06:30:16;;;;;;;2.03;1.40;;;;;;;;;;5032112;28;20116;-75
2023/01/08 06:32:42;;;;;;;1.90;1.23;;;;;;;;;;5029076;28;20086;-75
2023/01/08 06:35:08;;;;;;;1.40;1.30;;;;;;;;;;5025803;28;20706;-75
2023/01/08 06:37:34;;;;;;;2.00;1.42;;;;;;;;;;5028877;28;20039;-75
2023/01/08 06:40:00;;;;;;;1.80;1.35;;;;;;;;;;5025028;28;20431;-75
2023/01/08 06:42:26;;;;;;;1.60;1.23;;;;;;;;;;5029635;28;20253;-75
2023/01/08 06:44:52;;;;;;;2.25;1.20;;;;;;;;;;5034220;28;20035;-75
2023/01/08 06:47:18;;;;;;;1.52;1.27;;;;;;;;;;5032495;28;20488;-75
2023/01/08 06:49:44;;;;;;;2.13;1.42;;;;;;;;;;5035839;28;20453;-75
2023/01/08 06:52:10;;;;;;;1.95;1.27;;;;;;;;;;5029812;28;20030;-74
2023/01/08 06:54:36;;;;;;;1.55;0.98;;;;;;;;;;5028053;28;20033;-75
2023/01/08 06:57:02;;;;;;;2.00;1.30;;;;;;;;;;5025020;28;20044;-75
2023/01/08 06:59:28;;;;;;;2.10;1.50;;;;;;;;;;5029674;28;20034;-75
2023/01/08 07:01:54;;;;;;;2.08;1.60;;;;;;;;;;5029841;28;20090;-75
2023/01/08 07:04:20;;;;;;;1.40;1.30;;;;;;;;;;5023281;28;20020;-75
2023/01/08 07:06:46;;;;;;;1.67;1.38;;;;;;;;;;5029021;28;20053;-75
2023/01/08 07:09:13;;;;;;;1.40;1.10;;;;;;;;;;5025942;28;20058;-75
2023/01/08 07:11:40;;;;;;;1.75;1.42;;;;;;;;;;5029272;28;20392;-75
2023/01/08 07:14:06;;;;;;;2.13;1.50;;;;;;;;;;5028249;28;20037;-75
2023/01/08 07:16:32;;;;;;;2.08;1.38;;;;;;;;;;5028801;28;20045;-75
2023/01/08 07:18:58;;;;;;;1.85;1.40;;;;;;;;;;5027993;28;20025;-75
2023/01/08 07:21:24;;;;;;;2.53;1.50;;;;;;;;;;5027382;28;20025;-75
2023/01/08 07:23:50;;;;;;;3.25;1.20;;;;;;;;;;5027253;28;20021;-76
2023/01/08 07:26:16;;;;;;;2.60;1.50;;;;;;;;;;5026827;28;20033;-76
2023/01/08 07:28:42;;;;;;;1.77;1.23;;;;;;;;;;5031226;28;20029;-76
2023/01/08 07:31:08;;;;;;;2.10;1.50;;;;;;;;;;5031205;28;20095;-76
2023/01/08 07:33:34;;;;;;;2.63;1.40;;;;;;;;;;5026936;28;20109;-76
2023/01/08 07:36:00;;;;;;;1.27;1.10;;;;;;;;;;5025084;28;20106;-76
2023/01/08 07:38:26;;;;;;;1.40;1.30;;;;;;;;;;5028874;28;20021;-76
2023/01/08 07:40:52;;;;;;;1.77;1.20;;;;;;;;;;5028065;28;20074;-76
2023/01/08 07:43:18;;;;;;;1.23;1.13;;;;;;;;;;5027410;28;20036;-75
2023/01/08 07:45:44;;;;;;;2.95;1.30;;;;;;;;;;5026669;28;20048;-76
2023/01/08 07:48:14;;;;;;;1.52;1.42;;;;;;;;;;5027300;28;20033;-76
2023/01/08 07:50:40;;;;;;;2.13;1.38;;;;;;;;;;5029454;28;20021;-75
2023/01/08 07:53:06;;;;;;;2.03;1.40;;;;;;;;;;5036870;28;20120;-75
2023/01/08 07:55:32;;;;;;;1.52;1.30;;;;;;;;;;5031464;28;20029;-75
2023/01/08 07:57:58;;;;;;;1.63;1.30;;;;;;;;;;5027800;28;20048;-75
2023/01/08 08:00:24;;;;;;;2.50;1.40;;;;;;;;;;5025989;28;20029;-75
2023/01/08 08:02:50;;;;;;;2.13;1.45;;;;;;;;;;5027587;28;20041;-75
2023/01/08 08:05:17;;;;;;;1.65;1.17;;;;;;;;;;5029734;28;20033;-75
2023/01/08 08:07:43;;;;;;;1.52;1.35;;;;;;;;;;5036398;28;20072;-76
2023/01/08 08:10:10;;;;;;;2.40;1.60;;;;;;;;;;5027496;28;20052;-75
2023/01/08 08:12:36;;;;;;;2.08;1.50;;;;;;;;;;5025499;28;20553;-75
2023/01/08 08:15:02;;;;;;;2.83;1.55;;;;;;;;;;5026927;28;20036;-75
2023/01/08 08:17:28;;;;;;;2.03;1.52;;;;;;;;;;5025877;28;20116;-75
2023/01/08 08:19:54;;;;;;;1.83;1.63;;;;;;;;;;5028614;28;20018;-75
2023/01/08 08:22:20;;;;;;;1.65;1.50;;;;;;;;;;5028890;28;20022;-75
2023/01/08 08:24:46;;;;;;;2.00;1.33;;;;;;;;;;5030264;28;20484;-75
2023/01/08 08:27:12;;;;;;;1.67;1.20;;;;;;;;;;5028092;28;20409;-75
2023/01/08 08:29:38;;;;;;;1.75;1.42;;;;;;;;;;5034037;28;20549;-75
2023/01/08 08:32:04;;;;;;;2.03;1.40;;;;;;;;;;5024073;28;20030;-75
2023/01/08 08:34:30;;;;;;;2.85;1.77;;;;;;;;;;5030535;28;20183;-75
2023/01/08 08:36:56;;;;;;;2.65;1.85;;;;;;;;;;5039764;28;20044;-74
2023/01/08 08:39:22;;;;;;;2.10;1.40;;;;;;;;;;5032573;28;20033;-74
2023/01/08 08:41:48;;;;;;;3.00;1.65;;;;;;;;;;5026987;28;20032;-75
2023/01/08 08:44:14;;;;;;;2.72;1.73;;;;;;;;;;5031244;28;20683;-74
2023/01/08 08:46:40;;;;;;;1.67;1.40;;;;;;;;;;5031854;28;20095;-75
2023/01/08 08:49:06;;;;;;;2.40;1.65;;;;;;;;;;5030181;28;20029;-75
2023/01/08 08:51:32;;;;;;;3.13;1.30;;;;;;;;;;5028617;28;20671;-75
2023/01/08 08:53:58;;;;;;;3.90;1.30;;;;;;;;;;5030570;28;20040;-76
2023/01/08 08:56:24;;;;;;;2.85;1.58;;;;;;;;;;5031716;28;20028;-76
2023/01/08 08:58:51;;;;;;;1.95;1.20;;;;;;;;;;5029670;28;20481;-76
2023/01/08 09:01:17;;;;;;;1.30;1.10;;;;;;;;;;5029209;28;20022;-76
2023/01/08 09:03:43;;;;;;;1.85;1.20;;;;;;;;;;5028763;28;20034;-83
2023/01/08 09:06:12;;;;;;;1.90;1.00;;;;;;;;;;5028230;28;20033;-72
2023/01/08 09:08:38;;;;;;;1.98;1.30;;;;;;;;;;5027549;28;20041;-75
2023/01/08 09:11:04;;;;;;;1.50;1.27;;;;;;;;;;5028822;28;20476;-75
2023/01/08 09:13:30;;;;;;;1.20;1.10;;;;;;;;;;5028210;28;20036;-75
2023/01/08 09:15:59;;;;;;;3.30;1.42;;;;;;;;;;5030804;28;20049;-75
2023/01/08 09:18:25;;;;;;;1.83;1.42;;;;;;;;;;5030474;28;20040;-75
2023/01/08 09:20:51;;;;;;;1.85;1.27;;;;;;;;;;5035667;28;20459;-75
2023/01/08 09:23:17;;;;;;;1.52;1.10;;;;;;;;;;5034328;28;20242;-75
2023/01/08 09:25:43;;;;;;;1.48;1.10;;;;;;;;;;5032218;28;20028;-75
2023/01/08 09:28:11;;;;;;;1.83;1.33;;;;;;;;;;5026390;28;20025;-74
2023/01/08 09:30:37;;;;;;;2.30;1.30;;;;;;;;;;5032590;28;20661;-75
2023/01/08 09:33:03;;;;;;;1.60;1.25;;;;;;;;;;5040139;28;20025;-76
2023/01/08 09:35:30;;;;;;;1.85;1.20;;;;;;;;;;5030979;28;20045;-75
2023/01/08 09:37:56;;;;;;;1.73;1.45;;;;;;;;;;5029733;28;20444;-75
2023/01/08 09:40:23;;;;;;;2.55;1.00;;;;;;;;;;5025107;28;20032;-75
2023/01/08 09:42:53;;;;;;;1.52;1.10;;;;;;;;;;5034903;28;20022;-74
2023/01/08 09:45:25;;;;;;;1.52;1.30;;;;;;;;;;5029707;28;20510;-74
2023/01/08 09:47:51;;;;;;;2.22;1.30;;;;;;;;;;5027020;28;20592;-75
2023/01/08 09:50:17;;;;;;;4.38;1.55;;;;;;;;;;5036746;28;20025;-74
2023/01/08 09:52:44;;;;;;;2.67;1.10;;;;;;;;;;5040040;28;20039;-75
2023/01/08 09:55:13;;;;;;;2.78;1.60;;;;;;;;;;5030451;28;20538;-74
2023/01/08 09:57:40;;;;;;;1.33;1.20;;;;;;;;;;5031040;28;20026;-74
2023/01/08 10:00:17;;;;;;;2.20;1.25;;;;;;;;;;5028384;28;20068;-75
2023/01/08 10:02:43;;;;;;;1.60;1.23;;;;;;;;;;5028548;28;20060;-74
2023/01/08 10:05:13;;;;;;;2.15;1.40;;;;;;;;;;5031219;28;20020;-75
2023/01/08 10:07:39;;;;;;;1.38;1.23;;;;;;;;;;5039331;28;20153;-75
2023/01/08 10:10:06;;;;;;;3.25;1.52;;;;;;;;;;5028665;28;20112;-75
2023/01/08 10:12:33;;;;;;;1.27;1.02;;;;;;;;;;5035877;28;20525;-74
2023/01/08 10:15:04;;;;;;;1.85;1.27;;;;;;;;;;5028586;28;20032;-74
2023/01/08 10:17:30;;;;;;;;;;;;;;;;;;5034063;28;20022;-75
2023/01/08 10:19:56;;;;;;;2.30;1.23;;;;;;;;;;5028209;28;20486;-73
2023/01/08 10:22:24;;;;;;;2.97;1.10;;;;;;;;;;5024600;28;20057;-75
2023/01/08 10:24:50;;;;;;;1.77;1.38;;;;;;;;;;5030769;28;20055;-75
2023/01/08 10:27:17;;;;;;;2.42;1.10;;;;;;;;;;5030058;28;20037;-76
2023/01/08 10:29:43;;;;;;;1.23;1.13;;;;;;;;;;5028479;28;20033;-75
2023/01/08 10:32:13;;;;;;;1.65;1.50;;;;;;;;;;5026805;28;20041;-74
2023/01/08 10:34:47;;;;;;;2.88;1.40;;;;;;;;;;5026010;28;21758;-75
2023/01/08 10:37:14;;;;;;;2.03;1.30;;;;;;;;;;5031672;28;20026;-72
2023/01/08 10:39:45;;;;;;;2.88;1.10;;;;;;;;;;5027460;28;20028;-76
2023/01/08 10:42:11;;;;;;;2.05;1.30;;;;;;;;;;5035902;28;20066;-75
2023/01/08 10:44:37;;;;;;;1.90;1.42;;;;;;;;;;5029934;28;20041;-77
2023/01/08 10:47:04;;;;;;;1.83;1.40;;;;;;;;;;5034314;28;20061;-83
2023/01/08 10:49:37;;;;;;;2.40;1.30;;;;;;;;;;5028533;28;20040;-89
2023/01/08 10:52:04;;;;;;;2.72;1.30;;;;;;;;;;5026374;28;20045;-81
2023/01/08 10:54:34;;;;;;;2.13;1.40;;;;;;;;;;5021035;28;20120;-84
2023/01/08 10:57:00;;;;;;;1.70;1.20;;;;;;;;;;5022288;28;20022;-78
2023/01/08 10:59:26;;;;;;;1.38;1.10;;;;;;;;;;5028225;28;20029;-80
2023/01/08 11:01:54;;;;;;;3.42;1.75;;;;;;;;;;5021923;28;20469;-76
2023/01/08 11:04:28;;;;;;;1.25;0.93;;;;;;;;;;5034054;28;20022;-74
2023/01/08 11:06:58;;;;;;;2.28;1.20;;;;;;;;;;5022942;28;20036;-79
2023/01/08 11:09:27;;;;;;;4.07;1.38;;;;;;;;;;5015190;28;20061;-78
2023/01/08 11:11:53;;;;;;;3.25;1.40;;;;;;;;;;5024528;28;20025;-79
2023/01/08 11:14:21;;;;;;;2.20;1.38;;;;;;;;;;5021929;28;20472;-78
2023/01/08 11:16:48;;;;;;;1.90;1.10;;;;;;;;;;5039022;28;20112;-78
2023/01/08 11:19:19;;;;;;;1.77;1.27;;;;;;;;;;5024413;28;20034;-78
2023/01/08 11:21:54;;;;;;;1.60;1.25;;;;;;;;;;5026626;28;20033;-79
2023/01/08 11:24:23;;;;;;;1.17;0.90;;;;;;;;;;5022959;28;20033;-79
2023/01/08 11:27:09;;;;;;;1.30;1.10;;;;;;;;;;5027320;28;20037;-81
2023/01/08 11:29:43;;;;;;;1.55;1.20;;;;;;;;;;5017936;28;20045;-79
2023/01/08 11:32:29;;;;;;;2.60;1.35;;;;;;;;;;5016714;28;20473;-79
2023/01/08 11:35:03;;;;;;;1.35;1.10;;;;;;;;;;5018382;28;20065;-79
2023/01/08 11:37:36;;;;;;;2.10;1.08;;;;;;;;;;5022909;28;20052;-79
2023/01/08 11:40:02;;;;;;;1.45;1.27;;;;;;;;;;5021068;28;20112;-78
2023/01/08 11:42:28;;;;;;;1.83;1.05;;;;;;;;;;5024235;28;20037;-80
2023/01/08 11:45:19;;;;;;;1.85;1.10;;;;;;;;;;5022888;28;20022;-80
2023/01/08 11:48:04;;;;;;;3.33;1.50;;;;;;;;;;5017879;28;20029;-79
2023/01/08 11:50:34;;;;;;;2.47;1.27;;;;;;;;;;5023949;28;20026;-79
2023/01/08 11:53:03;;;;;;;3.35;1.13;;;;;;;;;;5025023;28;20041;-79
2023/01/08 11:55:48;;;;;;;1.40;1.00;;;;;;;;;;5036894;28;21056;-79
2023/01/08 11:58:33;;;;;;;1.85;1.20;;;;;;;;;;5024840;28;20030;-80
2023/01/08 12:01:01;;;;;;;1.60;1.40;;;;;;;;;;5025040;28;20029;-78
2023/01/08 12:03:33;;;;;;;1.27;0.90;;;;;;;;;;5029526;28;20027;-79
2023/01/08 12:06:09;;;;;;;1.40;1.30;;;;;;;;;;5024072;28;20037;-80
2023/01/08 12:08:41;;;;;;;3.58;1.63;;;;;;;;;;5028110;28;20056;-79
2023/01/08 12:11:27;;;;;;;1.90;1.30;;;;;;;;;;5025825;28;20021;-79
2023/01/08 12:14:32;;;;;;;1.70;1.20;;;;;;;;;;5025624;28;20116;-79
2023/01/08 12:17:06;;;;;;;2.85;1.20;;;;;;;;;;4982705;28;20573;-78
2023/01/08 12:19:41;;;;;;;1.35;1.17;;;;;;;;;;4984988;28;20128;-79
2023/01/08 12:22:07;;;;;;;2.20;1.30;;;;;;;;;;5010917;28;20115;-77
2023/01/08 12:24:45;;;;;;;1.52;1.20;;;;;;;;;;5024531;28;20049;-78
2023/01/08 12:27:18;;;;;;;2.15;1.38;;;;;;;;;;5024264;28;20033;-76
2023/01/08 12:30:00;;;;;;;2.30;1.60;;;;;;;;;;5026975;28;20061;-80
2023/01/08 12:32:26;;;;;;;;;;;;;;;;;;5027801;28;20030;-80
2023/01/08 12:34:57;;;;;;;2.30;1.75;;;;;;;;;;5014762;28;20398;-75
2023/01/08 12:37:23;;;;;;;2.40;1.40;;;;;;;;;;5015684;28;20535;-74
2023/01/08 12:40:15;;;;;;;1.40;1.20;;;;;;;;;;5018404;28;20042;-75
2023/01/08 12:42:43;;;;;;;2.20;1.25;;;;;;;;;;5010148;28;20045;-73
2023/01/08 12:45:24;;;;;;;1.95;1.40;;;;;;;;;;5022686;28;20017;-74
2023/01/08 12:47:54;;;;;;;3.05;1.35;;;;;;;;;;5023652;28;20025;-74
2023/01/08 12:50:24;;;;;;;1.42;1.10;;;;;;;;;;5020327;28;20033;-74
2023/01/08 12:53:12;;;;;;;1.83;1.23;;;;;;;;;;5023785;28;20033;-75
2023/01/08 12:55:42;;;;;;;1.52;1.15;;;;;;;;;;5026553;28;20030;-74
2023/01/08 12:58:08;;;;;;;1.48;1.23;;;;;;;;;;5024172;28;20392;-74
2023/01/08 13:00:43;;;;;;;2.33;1.20;;;;;;;;;;5024270;28;20676;-72
2023/01/08 13:03:14;;;;;;;3.10;1.25;;;;;;;;;;5025560;28;20112;-73
2023/01/08 13:05:42;;;;;;;;;;;;;;;;;;5024243;28;20496;-72
2023/01/08 13:08:24;;;;;;;1.65;1.10;;;;;;;;;;5024398;28;20114;-73
2023/01/08 13:10:51;;;;;;;1.20;1.10;;;;;;;;;;5023671;28;20029;-75
2023/01/08 13:13:37;;;;;;;2.92;1.65;;;;;;;;;;5017399;28;20030;-75
2023/01/08 13:16:18;;;;;;;1.35;1.20;;;;;;;;;;5025436;28;20204;-75
2023/01/08 13:18:58;;;;;;;2.05;1.00;;;;;;;;;;5024064;28;20045;-76
2023/01/08 13:21:38;;;;;;;1.30;1.20;;;;;;;;;;5022414;28;20737;-75
2023/01/08 13:24:04;;;;;;;5.40;1.55;;;;;;;;;;5024079;28;20029;-75
2023/01/08 13:26:32;;;;;;;2.60;1.30;;;;;;;;;;5023243;28;20037;-74
2023/01/08 13:29:22;;;;;;;1.33;1.00;;;;;;;;;;5024322;28;20033;-76
2023/01/08 13:31:48;;;;;;;1.80;1.23;;;;;;;;;;5023714;28;20026;-75
2023/01/08 13:34:19;;;;;;;1.25;1.10;;;;;;;;;;5019506;28;20045;-74
2023/01/08 13:36:55;;;;;;;1.60;1.20;;;;;;;;;;5022985;28;20211;-74
2023/01/08 13:39:22;;;;;;;1.80;1.05;;;;;;;;;;5022642;28;20420;-75
2023/01/08 13:42:17;;;;;;;1.70;1.10;;;;;;;;;;5024589;28;20056;-74
2023/01/08 13:44:48;;;;;;;1.95;1.50;;;;;;;;;;5019485;28;20079;-74
2023/01/08 13:47:20;;;;;;;1.17;1.00;;;;;;;;;;5021698;28;20037;-74
2023/01/08 13:49:48;;;;;;;1.25;1.00;;;;;;;;;;5025646;28;20120;-75
2023/01/08 13:52:33;;;;;;;1.60;1.10;;;;;;;;;;5025434;28;20080;-74
2023/01/08 13:55:04;;;;;;;2.03;1.00;;;;;;;;;;5020619;28;20026;-74
2023/01/08 13:57:42;;;;;;;1.23;1.10;;;;;;;;;;5023104;28;20040;-75
2023/01/08 14:00:09;;;;;;;1.83;1.10;;;;;;;;;;5018419;28;20137;-75
2023/01/08 14:02:48;;;;;;;2.30;1.27;;;;;;;;;;5021656;28;20028;-73
2023/01/08 14:05:19;;;;;;;4.88;1.63;;;;;;;;;;5020638;28;20465;-72
2023/01/08 14:07:45;;;;;;;1.27;0.95;;;;;;;;;;5025473;28;20061;-74
2023/01/08 14:10:13;;;;;;;1.63;1.23;;;;;;;;;;5024494;28;20452;-73
2023/01/08 14:12:39;;;;;;;1.40;1.10;;;;;;;;;;5018579;28;20499;-72
2023/01/08 14:15:08;;;;;;;1.13;1.00;;;;;;;;;;5008057;28;20025;-74
2023/01/08 14:17:35;;;;;;;1.55;1.10;;;;;;;;;;5014039;28;20124;-73
2023/01/08 14:20:01;;;;;;;2.13;1.17;;;;;;;;;;5015940;28;20218;-74
2023/01/08 14:22:30;;;;;;;1.95;1.20;;;;;;;;;;5012861;28;20399;-73
2023/01/08 14:24:58;;;;;;;1.10;0.90;;;;;;;;;;5015959;28;20099;-72
2023/01/08 14:27:25;;;;;;;1.88;1.27;;;;;;;;;;5015755;28;20705;-73
2023/01/08 14:29:52;;;;;;;1.70;1.20;;;;;;;;;;5014237;28;20034;-74
2023/01/08 14:32:28;;;;;;;2.05;1.00;;;;;;;;;;5018033;28;20030;-73
2023/01/08 14:34:54;;;;;;;1.15;0.98;;;;;;;;;;5014454;28;20619;-73
2023/01/08 14:37:20;;;;;;;2.67;1.30;;;;;;;;;;5015300;28;20029;-84
2023/01/08 14:39:47;;;;;;;2.88;1.30;;;;;;;;;;5018522;28;20491;-73
2023/01/08 14:45:21;;;;;;;1.73;1.30;;;;;;;;;;5013535;28;20045;-72
2023/01/08 14:47:49;;;;;;;1.85;1.35;;;;;;;;;;5013674;28;20025;-72
2023/01/08 14:50:20;;;;;;;2.63;1.20;;;;;;;;;;5013769;28;20017;-74
2023/01/08 14:52:49;;;;;;;1.42;1.13;;;;;;;;;;5018131;28;20033;-73
2023/01/08 14:55:17;;;;;;;2.15;1.38;;;;;;;;;;5018612;28;20033;-73